Terminal Aerodrome Forecast
Issued by NWS North Platte, NE

Home | Current Version | Previous Version | Text Only | Print | Product List | Glossary On
Versions: 1 2 3 4 5 6 7 8 9 10 11 12 13 14
000
FTUS43 KLBF 302300
TAFLBF
TAF
KLBF 302325Z 0100/0124 21006KT P6SM BKN150
     FM010200 VRB06KT P6SM BKN120
     FM010600 05005KT P6SM SCT120
     FM011700 35012KT P6SM SKC=

USA.gov is the U.S. government's official web portal to all federal, state and local government web resources and services.